Time;durP1;ratioP1;P1;durP2;ratioP2;P2;SDS_P1;SDS_P2;PMS_P1;PMS_P2;Temp;Humidity;BMP_temperature;BMP_pressure;BME280_temperature;BME280_humidity;BME280_pressure;Samples;Min_cycle;Max_cycle;Signal;HPM_P1;HPM_P2
2022/08/03 00:01:42;;;;;;;;;6.25;5.00;;;;;27.12;47.20;101119.16;5075795;27;45449;-67
2022/08/03 00:04:09;;;;;;;;;4.00;4.00;;;;;27.19;46.90;101125.03;5106231;27;45713;-67
2022/08/03 00:06:35;;;;;;;;;4.00;4.00;;;;;27.31;46.72;101135.03;5072376;28;45579;-67
2022/08/03 00:09:01;;;;;;;;;3.50;3.50;;;;;27.31;46.64;101124.28;5072918;27;45338;-66
2022/08/03 00:11:27;;;;;;;;;2.75;2.75;;;;;27.42;46.52;101135.25;5072654;27;45341;-65
2022/08/03 00:13:52;;;;;;;;;1.00;1.00;;;;;27.25;46.83;101128.22;5068038;27;45377;-67
2022/08/03 00:16:18;;;;;;;;;4.00;4.00;;;;;27.18;47.17;101118.78;5069751;28;45417;-68
2022/08/03 00:18:43;;;;;;;;;6.00;4.75;;;;;27.33;46.86;101135.81;5066866;27;45658;-67
2022/08/03 00:21:09;;;;;;;;;3.00;3.00;;;;;27.39;46.24;101137.28;5068640;27;45509;-66
2022/08/03 00:23:35;;;;;;;;;5.00;4.00;;;;;27.34;47.17;101134.88;5071557;27;45484;-66
2022/08/03 00:26:00;;;;;;;;;3.00;3.00;;;;;27.33;46.79;101138.50;5061134;27;45430;-68
2022/08/03 00:28:26;;;;;;;;;6.00;4.25;;;;;27.41;46.77;101135.38;5060779;28;46492;-65
2022/08/03 00:30:52;;;;;;;;;4.00;4.00;;;;;27.45;46.49;101135.09;5060205;27;45798;-66
2022/08/03 00:33:18;;;;;;;;;4.00;3.00;;;;;27.45;46.40;101126.13;5095902;27;45676;-66
2022/08/03 00:35:44;;;;;;;;;2.25;2.25;;;;;27.51;46.46;101139.19;5062260;27;45587;-66
2022/08/03 00:38:12;;;;;;;;;3.00;3.00;;;;;27.51;46.03;101135.66;5093903;27;46597;-67
2022/08/03 00:40:39;;;;;;;;;3.00;3.00;;;;;27.44;45.90;101114.50;5072164;27;45782;-66
2022/08/03 00:43:07;;;;;;;;;4.00;4.00;;;;;27.48;45.30;101128.63;5076488;27;45398;-66
2022/08/03 00:45:37;;;;;;;;;2.50;2.50;;;;;27.53;45.73;101134.59;5076597;27;45426;-65
2022/08/03 00:48:04;;;;;;;;;2.00;2.00;;;;;27.55;45.32;101131.78;5070080;27;45390;-66
2022/08/03 00:50:34;;;;;;;;;3.25;2.25;;;;;27.57;45.51;101130.72;5081044;27;45402;-66
2022/08/03 00:53:01;;;;;;;;;2.00;2.00;;;;;27.49;45.42;101119.59;5077145;27;45495;-66
2022/08/03 00:55:28;;;;;;;;;3.00;3.00;;;;;27.56;45.46;101125.47;5077088;27;45560;-66
2022/08/03 00:57:54;;;;;;;;;2.75;2.75;;;;;27.55;45.27;101129.09;5077568;27;45474;-68
2022/08/03 01:00:22;;;;;;;;;2.50;2.50;;;;;27.55;45.56;101132.69;5077506;28;45754;-65
2022/08/03 01:02:48;;;;;;;;;2.25;2.25;;;;;27.48;45.16;101113.34;5076239;27;45577;-66
2022/08/03 01:05:14;;;;;;;;;2.00;2.00;;;;;27.53;45.25;101121.13;5109374;27;45612;-67
2022/08/03 01:08:14;;;;;;;;;2.50;2.50;;;;;27.54;44.89;101125.53;5076423;27;46272;-66
2022/08/03 01:11:01;;;;;;;;;2.00;2.00;;;;;27.53;45.01;101117.59;5064688;28;45422;-66
2022/08/03 01:13:36;;;;;;;;;4.00;3.00;;;;;27.52;45.13;101115.84;5078231;28;45686;-67
2022/08/03 01:16:19;;;;;;;;;2.50;2.00;;;;;27.49;45.16;101114.22;5080198;27;45349;-67
2022/08/03 01:18:52;;;;;;;;;2.50;2.50;;;;;27.49;44.96;101112.38;5076152;27;45777;-66
2022/08/03 01:21:48;;;;;;;;;3.00;3.00;;;;;27.41;45.40;101103.94;5076441;27;45677;-66
2022/08/03 01:24:32;;;;;;;;;5.00;4.00;;;;;27.41;45.34;101109.31;5064320;28;45440;-66
2022/08/03 01:27:11;;;;;;;;;3.25;3.25;;;;;27.36;45.22;101103.38;5076440;28;45658;-66
2022/08/03 01:29:46;;;;;;;;;4.75;3.00;;;;;27.38;45.01;101104.13;5075657;27;45511;-66
2022/08/03 01:32:15;;;;;;;;;3.75;3.25;;;;;27.38;45.09;101105.94;5078712;27;45423;-66
2022/08/03 01:34:54;;;;;;;;;2.00;2.00;;;;;27.25;45.12;101084.34;5076205;28;45401;-66
2022/08/03 01:37:50;;;;;;;;;1.50;1.50;;;;;27.31;45.00;101093.84;5076062;27;45880;-66
2022/08/03 01:40:19;;;;;;;;;2.75;2.75;;;;;26.95;45.66;101036.84;5077095;27;45885;-66
2022/08/03 01:42:47;;;;;;;;;2.00;2.00;;;;;27.06;45.86;101093.50;5074023;27;45812;-66
2022/08/03 01:45:17;;;;;;;;;3.50;3.00;;;;;26.88;46.09;101059.69;5078117;27;45481;-66
2022/08/03 01:47:45;;;;;;;;;2.75;2.00;;;;;27.09;45.86;101100.53;5065094;27;45398;-67
2022/08/03 01:50:12;;;;;;;;;4.50;2.75;;;;;26.73;46.70;101074.94;5078122;27;45822;-66
2022/08/03 01:52:43;;;;;;;;;3.25;3.00;;;;;26.66;46.94;101095.06;5078945;27;45617;-65
2022/08/03 01:55:10;;;;;;;;;2.75;2.75;;;;;26.41;47.32;101076.81;5078305;27;45670;-66
2022/08/03 01:57:38;;;;;;;;;4.25;3.00;;;;;26.23;47.74;101070.72;5077892;28;45845;-66
2022/08/03 02:00:08;;;;;;;;;3.75;3.00;;;;;26.27;47.59;101077.66;5079929;27;46788;-67
2022/08/03 02:02:35;;;;;;;;;2.00;2.00;;;;;26.30;48.01;101090.03;5078226;27;45851;-66
2022/08/03 02:05:05;;;;;;;;;2.25;2.25;;;;;26.30;47.95;101092.72;5075951;27;45294;-66
2022/08/03 02:07:33;;;;;;;;;3.25;2.00;;;;;26.15;48.21;101072.97;5074956;28;45689;-67
2022/08/03 02:10:03;;;;;;;;;2.00;2.00;;;;;26.20;47.80;101081.66;5077390;27;45881;-67
2022/08/03 02:12:31;;;;;;;;;3.00;3.00;;;;;26.15;48.04;101075.66;5076106;28;45335;-66
2022/08/03 02:14:59;;;;;;;;;3.75;3.00;;;;;26.15;47.98;101078.34;5078087;27;45487;-66
2022/08/03 02:17:26;;;;;;;;;1.50;1.50;;;;;26.07;48.29;101070.72;5077297;28;45425;-67
2022/08/03 02:19:55;;;;;;;;;2.00;2.00;;;;;25.94;48.26;101059.00;5075780;27;46680;-66
2022/08/03 02:22:23;;;;;;;;;2.00;2.00;;;;;26.00;48.23;101077.41;5078455;27;45528;-66
2022/08/03 02:24:49;;;;;;;;;3.00;2.75;;;;;25.95;49.02;101080.34;5076054;28;45390;-67
2022/08/03 02:27:21;;;;;;;;;2.75;2.75;;;;;25.84;49.53;101068.47;5075643;27;45467;-66
2022/08/03 02:29:52;;;;;;;;;2.00;1.75;;;;;25.82;48.69;101065.91;5075126;27;46463;-66
2022/08/03 02:32:23;;;;;;;;;3.00;2.00;;;;;25.76;48.98;101072.44;5074789;27;45507;-67
2022/08/03 02:34:52;;;;;;;;;2.00;2.00;;;;;25.74;49.38;101071.66;5074975;27;45508;-68
2022/08/03 02:37:20;;;;;;;;;2.00;2.00;;;;;25.70;49.27;101070.13;5075130;27;45475;-66
2022/08/03 02:39:48;;;;;;;;;3.50;2.00;;;;;25.68;48.88;101068.50;5074829;28;46103;-65
2022/08/03 02:42:17;;;;;;;;;2.00;2.00;;;;;25.69;49.17;101065.69;5077703;28;45308;-68
2022/08/03 02:44:48;;;;;;;;;2.25;2.25;;;;;25.64;48.84;101064.22;5075432;27;45472;-68
2022/08/03 02:47:15;;;;;;;;;1.25;1.25;;;;;25.52;49.11;101063.09;5078599;27;45342;-68
2022/08/03 02:49:42;;;;;;;;;2.00;2.00;;;;;25.64;48.97;101059.72;5079060;27;46356;-66
2022/08/03 02:52:12;;;;;;;;;1.75;1.75;;;;;25.70;49.03;101064.75;5074297;28;45444;-67
2022/08/03 02:54:39;;;;;;;;;1.25;1.25;;;;;25.33;48.70;101015.84;5073893;27;45441;-66
2022/08/03 02:57:08;;;;;;;;;1.75;1.75;;;;;25.67;48.82;101064.06;5075237;27;45409;-66
2022/08/03 02:59:36;;;;;;;;;1.00;1.00;;;;;25.65;48.44;101057.91;5074231;27;45417;-67
2022/08/03 03:02:03;;;;;;;;;2.00;2.00;;;;;25.55;48.99;101049.50;5074148;27;45722;-67
2022/08/03 03:04:29;;;;;;;;;2.25;2.00;;;;;25.52;48.85;101060.41;5074636;27;45307;-67
2022/08/03 03:06:56;;;;;;;;;3.00;1.00;;;;;25.46;49.04;101047.34;5074595;27;45373;-66
2022/08/03 03:09:22;;;;;;;;;1.00;1.00;;;;;25.49;48.88;101057.91;5107217;27;46325;-67
2022/08/03 03:11:50;;;;;;;;;1.00;1.00;;;;;25.50;49.12;101056.94;5073997;28;45570;-67
2022/08/03 03:14:18;;;;;;;;;1.00;1.00;;;;;25.45;49.44;101057.22;5073969;27;45509;-66
2022/08/03 03:16:45;;;;;;;;;2.25;2.25;;;;;25.41;49.07;101049.41;5074943;27;45504;-66
2022/08/03 03:19:14;;;;;;;;;1.00;1.00;;;;;25.35;49.72;101056.84;5074306;27;45516;-66
2022/08/03 03:21:42;;;;;;;;;1.00;1.00;;;;;25.37;49.39;101054.09;5074380;27;45688;-67
2022/08/03 03:24:09;;;;;;;;;1.00;1.00;;;;;25.34;49.46;101056.91;5073870;27;45465;-67
2022/08/03 03:26:35;;;;;;;;;2.00;2.00;;;;;25.29;49.60;101045.59;5072845;28;45619;-66
2022/08/03 03:29:01;;;;;;;;;2.00;2.00;;;;;25.24;49.88;101053.88;5072282;28;45760;-67
2022/08/03 03:31:27;;;;;;;;;1.00;1.00;;;;;25.32;49.25;101058.84;5077811;27;45357;-67
2022/08/03 03:33:56;;;;;;;;;1.75;1.25;;;;;25.20;49.40;101044.28;5077060;27;45467;-66
2022/08/03 03:36:21;;;;;;;;;2.75;2.75;;;;;25.20;49.96;101044.28;5074230;27;45745;-67
2022/08/03 03:38:47;;;;;;;;;1.00;1.00;;;;;25.30;49.24;101047.34;5074119;28;45473;-67
2022/08/03 03:41:13;;;;;;;;;2.00;2.00;;;;;25.20;50.21;101046.97;5106538;27;45316;-66
2022/08/03 03:43:40;;;;;;;;;1.25;1.25;;;;;25.12;50.17;101041.13;5073592;27;45475;-67
2022/08/03 03:46:05;;;;;;;;;6.00;1.00;;;;;25.08;50.03;101037.75;5073309;27;45872;-67
2022/08/03 03:48:31;;;;;;;;;2.75;2.00;;;;;25.01;50.41;101031.00;5073403;27;46266;-65
2022/08/03 03:50:58;;;;;;;;;1.25;1.25;;;;;25.04;50.33;101035.31;5073868;27;45403;-66
2022/08/03 03:53:24;;;;;;;;;1.25;1.25;;;;;25.04;50.86;101044.22;5073626;27;45503;-66
2022/08/03 03:55:52;;;;;;;;;2.00;2.00;;;;;25.00;50.52;101047.13;5074091;28;45835;-67
2022/08/03 03:58:19;;;;;;;;;2.33;2.33;;;;;25.04;50.28;101048.72;5074522;27;45736;-67
2022/08/03 04:00:45;;;;;;;;;1.75;1.75;;;;;24.92;50.55;101043.06;5072932;27;45441;-66
2022/08/03 04:03:11;;;;;;;;;1.00;1.00;;;;;25.07;50.46;101043.19;5073321;27;45757;-67
2022/08/03 04:11:17;;;;;;;;;1.50;1.50;;;;;25.20;49.76;101051.44;5073725;28;45488;-67
2022/08/03 04:13:57;;;;;;;;;1.25;1.25;;;;;25.12;49.82;101039.28;5073415;27;45522;-67
2022/08/03 04:16:27;;;;;;;;;2.00;2.00;;;;;25.14;50.55;101045.44;5074198;27;45546;-66
2022/08/03 04:18:59;;;;;;;;;5.75;3.00;;;;;25.05;50.09;101050.44;5074701;27;45406;-67
2022/08/03 04:21:27;;;;;;;;;2.75;2.00;;;;;25.15;49.88;101055.22;5075452;27;45541;-66
2022/08/03 04:23:58;;;;;;;;;2.75;2.00;;;;;25.10;50.13;101046.53;5074397;28;45424;-66
2022/08/03 04:26:28;;;;;;;;;2.00;2.00;;;;;24.94;50.71;101027.75;5077156;27;45674;-67
2022/08/03 04:28:54;;;;;;;;;1.25;1.25;;;;;24.85;50.58;101016.69;5077429;28;47307;-67
2022/08/03 04:31:22;;;;;;;;;3.00;1.50;;;;;24.99;50.81;101048.97;5081538;27;45423;-66
2022/08/03 04:33:50;;;;;;;;;3.25;1.75;;;;;24.62;50.98;100981.25;5078468;28;45503;-67
2022/08/03 04:36:21;;;;;;;;;2.25;1.00;;;;;24.98;50.96;101047.22;5073923;27;45482;-66
2022/08/03 04:38:59;;;;;;;;;3.00;2.00;;;;;24.95;50.40;101034.84;5073944;27;45333;-65
2022/08/03 04:41:26;;;;;;;;;2.00;2.00;;;;;24.81;50.68;101032.03;5077686;27;45412;-66
2022/08/03 04:43:54;;;;;;;;;3.00;1.75;;;;;24.95;50.88;101042.88;5074697;27;45461;-66
2022/08/03 04:46:25;;;;;;;;;3.00;3.00;;;;;24.90;50.49;101025.34;5073972;28;45395;-66
2022/08/03 04:48:51;;;;;;;;;1.00;1.00;;;;;25.06;50.72;101044.16;5073493;27;46304;-66
2022/08/03 04:51:16;;;;;;;;;1.00;1.00;;;;;25.09;50.35;101049.34;5071587;27;45519;-67
2022/08/03 04:53:43;;;;;;;;;1.25;1.25;;;;;25.10;50.74;101043.00;5073416;27;45582;-64
2022/08/03 04:56:09;;;;;;;;;2.00;2.00;;;;;25.14;50.68;101049.94;5073744;28;45808;-67
2022/08/03 04:58:34;;;;;;;;;1.75;1.75;;;;;25.05;50.51;101027.19;5072633;27;45669;-67
2022/08/03 05:01:00;;;;;;;;;1.50;1.50;;;;;25.18;50.62;101049.72;5072893;27;45696;-66
2022/08/03 05:03:25;;;;;;;;;5.33;2.00;;;;;25.14;50.42;101056.16;5072987;28;45550;-69
2022/08/03 05:05:52;;;;;;;;;1.50;1.50;;;;;25.14;50.67;101045.44;5073005;28;45491;-66
2022/08/03 05:08:18;;;;;;;;;2.67;2.67;;;;;25.10;50.98;101051.91;5072516;27;45917;-68
2022/08/03 05:10:43;;;;;;;;;2.25;2.25;;;;;25.05;50.87;101040.56;5068470;28;45434;-67
2022/08/03 05:13:11;;;;;;;;;4.00;3.00;;;;;25.15;51.11;101059.69;5068464;28;45346;-66
2022/08/03 05:15:37;;;;;;;;;4.00;3.00;;;;;25.17;50.99;101053.34;5068336;27;45679;-66
2022/08/03 05:18:03;;;;;;;;;2.00;2.00;;;;;25.09;50.43;101035.94;5066163;27;45531;-66
2022/08/03 05:20:29;;;;;;;;;3.25;3.25;;;;;25.26;50.32;101062.72;5071625;27;45488;-64
2022/08/03 05:22:56;;;;;;;;;2.25;2.25;;;;;25.28;50.65;101063.50;5072745;27;45464;-68
2022/08/03 05:25:22;;;;;;;;;5.67;3.33;;;;;25.25;50.79;101062.78;5072450;27;45535;-65
2022/08/03 05:27:47;;;;;;;;;5.25;3.00;;;;;25.35;50.41;101067.56;5077696;27;45559;-66
2022/08/03 05:30:13;;;;;;;;;3.00;3.00;;;;;25.35;49.90;101047.94;5074181;28;45717;-66
2022/08/03 05:32:39;;;;;;;;;2.25;2.25;;;;;25.44;49.94;101063.53;5074493;27;45467;-67
2022/08/03 05:35:05;;;;;;;;;5.00;3.00;;;;;25.50;49.58;101049.75;5073096;27;45475;-67
2022/08/03 05:37:30;;;;;;;;;2.50;2.00;;;;;25.60;50.01;101060.84;5067872;27;48038;-67
2022/08/03 05:39:56;;;;;;;;;2.50;2.50;;;;;25.59;49.66;101056.44;5073036;27;45445;-66
2022/08/03 05:42:22;;;;;;;;;2.25;2.25;;;;;25.62;49.51;101055.41;5073750;27;45409;-67
2022/08/03 05:44:47;;;;;;;;;6.50;4.00;;;;;25.73;49.31;101066.41;5078717;28;45448;-66
2022/08/03 05:47:13;;;;;;;;;5.00;3.00;;;;;25.68;49.67;101066.66;5100606;27;46584;-67
2022/08/03 05:49:39;;;;;;;;;3.00;3.00;;;;;25.63;49.42;101044.59;5071264;27;45460;-68
2022/08/03 05:52:08;;;;;;;;;4.75;3.25;;;;;25.78;49.42;101062.50;5075395;27;45367;-67
2022/08/03 05:54:34;;;;;;;;;4.00;4.00;;;;;25.63;49.06;101017.78;5073852;28;45648;-65
2022/08/03 05:57:00;;;;;;;;;5.75;4.00;;;;;26.05;48.88;101064.59;5075051;28;45416;-67
2022/08/03 05:59:25;;;;;;;;;3.00;3.00;;;;;26.07;48.77;101060.00;5075562;28;45791;-67
2022/08/03 06:01:51;;;;;;;;;3.75;3.75;;;;;26.05;48.47;101055.69;5063855;27;46374;-67
2022/08/03 06:04:16;;;;;;;;;3.75;3.75;;;;;26.10;48.42;101054.47;5068001;27;45517;-67
2022/08/03 06:06:42;;;;;;;;;4.50;3.50;;;;;26.14;48.45;101052.47;5067007;27;45459;-66
2022/08/03 06:09:09;;;;;;;;;2.50;2.50;;;;;26.27;48.60;101072.28;5064612;27;45744;-67
2022/08/03 06:11:35;;;;;;;;;3.00;3.00;;;;;26.26;48.86;101073.22;5069521;27;45658;-66
2022/08/03 06:14:01;;;;;;;;;5.00;3.00;;;;;26.11;48.37;101040.09;5063956;27;45574;-67
2022/08/03 06:16:26;;;;;;;;;2.75;2.75;;;;;26.33;47.93;101063.00;5069730;27;45586;-66
2022/08/03 06:18:52;;;;;;;;;4.00;3.75;;;;;26.48;47.89;101070.16;5066003;27;45512;-66
2022/08/03 06:21:18;;;;;;;;;4.00;4.00;;;;;26.42;47.61;101057.09;5077175;27;45562;-66
2022/08/03 06:23:44;;;;;;;;;5.50;3.00;;;;;26.57;47.84;101063.38;5078304;27;45412;-67
2022/08/03 06:26:10;;;;;;;;;6.50;3.00;;;;;26.66;47.29;101060.16;5073611;27;45480;-67
2022/08/03 06:28:35;;;;;;;;;5.25;4.00;;;;;26.79;47.33;101079.97;5068917;27;45576;-67
2022/08/03 06:31:01;;;;;;;;;3.25;3.00;;;;;26.82;46.85;101068.16;5064074;27;45468;-66
2022/08/03 06:33:27;;;;;;;;;7.00;3.25;;;;;26.90;47.22;101071.22;5069788;27;45448;-67
2022/08/03 06:35:53;;;;;;;;;4.00;3.25;;;;;27.08;46.83;101067.41;5069274;27;46383;-66
2022/08/03 06:38:18;;;;;;;;;3.50;3.50;;;;;27.28;46.42;101076.09;5071366;27;45900;-67
2022/08/03 06:40:44;;;;;;;;;4.25;3.00;;;;;27.30;46.40;101065.25;5073213;27;45634;-67
2022/08/03 06:43:10;;;;;;;;;3.00;3.00;;;;;27.51;45.99;101065.72;5072840;27;45623;-66
2022/08/03 06:45:36;;;;;;;;;4.00;3.00;;;;;27.62;45.94;101071.25;5072659;27;46501;-66
2022/08/03 06:48:07;;;;;;;;;3.25;3.25;;;;;27.69;45.52;101072.56;5069569;27;45511;-67
2022/08/03 06:50:34;;;;;;;;;4.75;3.50;;;;;27.77;45.59;101072.09;5074982;27;45357;-68
2022/08/03 06:53:00;;;;;;;;;4.00;4.00;;;;;27.75;45.53;101074.03;5075660;27;45518;-67
2022/08/03 06:55:26;;;;;;;;;3.00;3.00;;;;;27.80;45.14;101055.75;5078338;28;45326;-68
2022/08/03 06:57:52;;;;;;;;;4.00;4.00;;;;;28.07;45.18;101078.19;5073313;28;45421;-68
2022/08/03 07:00:18;;;;;;;;;4.00;4.00;;;;;28.05;44.57;101061.28;5077415;27;45490;-68
2022/08/03 07:02:44;;;;;;;;;3.00;3.00;;;;;28.21;44.25;101071.88;5080147;27;45720;-67
2022/08/03 07:05:11;;;;;;;;;4.00;3.00;;;;;28.25;43.98;101064.47;5077443;27;46048;-68
2022/08/03 07:07:37;;;;;;;;;4.00;4.00;;;;;28.23;44.00;101067.25;5077697;27;45509;-67
2022/08/03 07:10:04;;;;;;;;;4.25;4.00;;;;;28.30;43.79;101073.09;5082205;27;45574;-68
2022/08/03 07:12:30;;;;;;;;;4.25;4.25;;;;;28.21;44.48;101076.41;5082930;27;45487;-68
2022/08/03 07:14:58;;;;;;;;;6.25;6.00;;;;;28.10;44.59;101069.06;5079409;27;45385;-68
2022/08/03 07:17:27;;;;;;;;;8.25;6.50;;;;;28.03;44.51;101043.50;5074199;27;45432;-67
2022/08/03 07:19:52;;;;;;;;;6.00;5.00;;;;;28.34;44.45;101080.88;5076934;27;45528;-67
2022/08/03 07:22:18;;;;;;;;;2.75;2.75;;;;;28.44;44.21;101064.94;5080504;28;45276;-67
2022/08/03 07:24:44;;;;;;;;;9.75;5.50;;;;;28.47;44.97;101080.06;5075033;28;45816;-67
2022/08/03 07:27:10;;;;;;;;;9.25;6.25;;;;;28.56;43.34;101073.19;5073852;27;45482;-67
2022/08/03 07:29:36;;;;;;;;;6.25;5.50;;;;;28.44;43.38;101066.78;5072838;27;45562;-67
2022/08/03 07:32:03;;;;;;;;;5.75;5.00;;;;;28.44;42.88;101054.16;5071035;27;45830;-67
2022/08/03 07:34:29;;;;;;;;;4.75;4.75;;;;;28.50;42.30;101058.31;5073583;27;46136;-67
2022/08/03 07:36:56;;;;;;;;;7.25;5.50;;;;;28.57;42.52;101072.22;5077027;27;45508;-68
2022/08/03 07:39:24;;;;;;;;;5.25;5.25;;;;;28.71;42.33;101073.03;5066958;27;45947;-68
2022/08/03 07:41:50;;;;;;;;;8.75;6.50;;;;;28.67;42.05;101073.34;5068987;27;45355;-67
2022/08/03 07:44:17;;;;;;;;;5.25;4.00;;;;;28.66;42.39;101072.44;5065221;27;45446;-67
2022/08/03 07:46:43;;;;;;;;;6.75;5.75;;;;;28.69;41.95;101069.56;5068176;28;45560;-67
2022/08/03 07:49:09;;;;;;;;;4.00;4.00;;;;;28.71;41.54;101069.44;5070885;27;46150;-67
2022/08/03 07:51:35;;;;;;;;;5.75;5.75;;;;;28.53;41.72;101050.03;5071309;27;45553;-67
2022/08/03 07:54:00;;;;;;;;;5.50;5.50;;;;;28.74;41.51;101071.94;5071624;27;45689;-68
2022/08/03 07:56:27;;;;;;;;;4.00;4.00;;;;;28.83;41.08;101062.34;5074329;27;45296;-68
2022/08/03 07:58:54;;;;;;;;;7.25;6.00;;;;;28.81;41.03;101062.47;5062575;28;45497;-68
2022/08/03 08:01:19;;;;;;;;;4.50;4.50;;;;;28.88;41.04;101077.25;5071723;27;45615;-68
2022/08/03 08:03:46;;;;;;;;;4.00;4.00;;;;;28.93;40.65;101074.22;5070728;27;46172;-68
2022/08/03 08:06:11;;;;;;;;;4.25;4.25;;;;;28.95;41.09;101077.69;5075589;27;45457;-68
2022/08/03 08:08:38;;;;;;;;;5.75;4.50;;;;;29.07;40.59;101075.97;5076734;27;45504;-68
2022/08/03 08:11:05;;;;;;;;;4.50;4.00;;;;;29.18;40.55;101074.22;5070417;27;45392;-67
2022/08/03 08:13:30;;;;;;;;;4.50;4.00;;;;;29.12;40.52;101074.69;5070799;27;45580;-67
2022/08/03 08:15:56;;;;;;;;;6.25;5.75;;;;;29.11;40.72;101069.38;5072596;27;45390;-67
2022/08/03 08:18:22;;;;;;;;;5.00;5.00;;;;;29.17;40.49;101060.88;5072241;27;45598;-68
2022/08/03 08:22:58;;;;;;;;;6.00;4.75;;;;;29.27;40.24;101039.50;5056965;28;45500;-68
2022/08/03 08:25:25;;;;;;;;;6.40;6.40;;;;;29.28;40.15;101052.00;5047827;28;45435;-68
2022/08/03 08:27:50;;;;;;;;;5.50;5.50;;;;;29.43;40.23;101067.09;5047232;28;45647;-68
2022/08/03 08:30:19;;;;;;;;;5.25;5.25;;;;;29.48;39.71;101053.28;5048523;28;45226;-68
2022/08/03 08:32:46;;;;;;;;;5.00;5.00;;;;;29.51;39.59;101058.44;5050223;28;45538;-68
2022/08/03 08:35:12;;;;;;;;;6.25;6.25;;;;;29.47;39.75;101065.91;5049863;28;45481;-66
2022/08/03 08:37:39;;;;;;;;;4.75;4.75;;;;;29.57;39.70;101061.56;5047650;28;45673;-67
2022/08/03 08:40:06;;;;;;;;;4.50;4.50;;;;;29.65;39.29;101042.09;5048826;28;45712;-67
2022/08/03 08:42:32;;;;;;;;;4.50;4.50;;;;;29.88;39.09;101055.78;5046679;28;45362;-66
2022/08/03 08:45:00;;;;;;;;;3.75;3.75;;;;;29.99;39.39;101040.50;5048479;28;45879;-67
2022/08/03 08:47:29;;;;;;;;;4.25;4.00;;;;;30.16;39.15;101043.75;5047362;28;45406;-67
2022/08/03 08:50:00;;;;;;;;;7.75;5.75;;;;;30.05;38.49;101022.97;5050048;28;45340;-67
2022/08/03 08:52:28;;;;;;;;;7.00;4.50;;;;;30.22;39.03;101040.59;5053488;28;45310;-67
2022/08/03 08:54:58;;;;;;;;;8.75;7.00;;;;;30.17;38.67;101027.44;5053794;28;45411;-67
2022/08/03 08:57:34;;;;;;;;;5.50;4.75;;;;;30.18;38.40;101039.09;5052097;28;45471;-67
2022/08/03 09:00:00;;;;;;;;;6.00;5.00;;;;;30.29;38.10;101049.97;5050294;28;46255;-67
2022/08/03 09:02:29;;;;;;;;;6.25;5.25;;;;;30.35;38.33;101044.13;5049682;28;46137;-68
2022/08/03 09:04:55;;;;;;;;;6.00;6.00;;;;;30.35;37.42;101032.44;5053140;28;45227;-67
2022/08/03 09:07:21;;;;;;;;;5.25;5.25;;;;;30.39;37.39;101040.19;5049638;28;45404;-66
2022/08/03 09:09:47;;;;;;;;;5.00;4.75;;;;;30.38;37.43;101048.44;5049418;28;45650;-65
2022/08/03 09:12:13;;;;;;;;;6.25;6.25;;;;;30.36;37.11;101043.13;5048851;28;45668;-66
2022/08/03 09:14:39;;;;;;;;;4.50;3.75;;;;;30.27;36.41;101019.50;5049047;28;45806;-67
2022/08/03 09:17:04;;;;;;;;;6.50;5.00;;;;;30.40;37.60;101043.78;5048497;28;45654;-66
2022/08/03 09:19:32;;;;;;;;;7.00;7.00;;;;;30.53;36.65;101039.13;5049330;28;45492;-66
2022/08/03 09:22:14;;;;;;;;;5.50;5.50;;;;;30.49;36.11;101032.22;5047490;28;46760;-67
2022/08/03 09:24:57;;;;;;;;;6.20;6.00;;;;;30.43;36.50;101038.13;5049966;28;45430;-67
2022/08/03 09:27:23;;;;;;;;;3.50;3.50;;;;;30.45;36.40;101027.19;5051421;28;45543;-67
2022/08/03 09:29:50;;;;;;;;;6.00;5.00;;;;;30.57;36.51;101031.66;5052938;28;45390;-67
2022/08/03 09:32:20;;;;;;;;;5.00;5.00;;;;;30.54;35.88;101026.47;5049470;28;45509;-66
2022/08/03 09:34:48;;;;;;;;;6.60;5.00;;;;;30.60;36.39;101031.41;5038620;28;45493;-66
2022/08/03 09:37:15;;;;;;;;;7.00;5.00;;;;;30.65;36.14;101026.50;5038971;28;45376;-65
2022/08/03 09:39:41;;;;;;;;;9.25;5.75;;;;;30.70;36.26;101027.00;5037686;28;45691;-65
2022/08/03 09:42:07;;;;;;;;;8.00;6.00;;;;;30.82;36.01;101031.47;5038976;28;45399;-67
2022/08/03 09:44:35;;;;;;;;;7.00;6.25;;;;;30.73;35.13;101024.06;5036081;28;45229;-67
2022/08/03 09:47:01;;;;;;;;;7.75;7.50;;;;;30.68;35.75;101018.13;5036357;28;45290;-67
2022/08/03 09:49:27;;;;;;;;;7.00;6.75;;;;;30.75;35.48;101018.53;5036155;28;45270;-67
2022/08/03 09:51:54;;;;;;;;;7.00;6.25;;;;;30.88;35.61;101024.72;5036068;28;45359;-68
2022/08/03 09:54:31;;;;;;;;;5.50;5.50;;;;;30.90;35.88;101011.94;5035793;28;45514;-68
2022/08/03 09:56:57;;;;;;;;;7.50;5.00;;;;;30.97;35.70;101009.63;5034453;28;45649;-68
2022/08/03 09:59:31;;;;;;;;;5.25;5.25;;;;;31.11;35.56;101014.78;5035723;28;45543;-67
2022/08/03 10:01:58;;;;;;;;;5.00;5.00;;;;;31.17;34.96;101008.88;5034115;28;47124;-66
2022/08/03 10:04:25;;;;;;;;;5.00;5.00;;;;;31.00;34.64;100993.13;5035617;28;45423;-67
2022/08/03 10:07:18;;;;;;;;;5.25;5.25;;;;;31.11;35.15;101006.69;5035504;28;45763;-66
2022/08/03 10:09:54;;;;;;;;;5.00;5.00;;;;;31.27;35.21;101000.84;5032640;28;45431;-68
2022/08/03 10:12:20;;;;;;;;;5.75;4.75;;;;;31.32;34.47;101008.59;5033929;28;47702;-67
2022/08/03 10:14:46;;;;;;;;;5.60;5.40;;;;;31.20;34.38;100980.69;5035114;28;45556;-67
2022/08/03 10:17:13;;;;;;;;;6.25;6.25;;;;;31.31;34.62;101005.03;5035369;28;45671;-67
2022/08/03 10:19:40;;;;;;;;;6.75;5.00;;;;;31.33;34.34;100992.25;5033800;28;45461;-67
2022/08/03 10:22:21;;;;;;;;;5.00;5.00;;;;;31.40;34.02;100995.38;5048266;28;45463;-65
2022/08/03 10:25:01;;;;;;;;;6.00;6.00;;;;;31.50;33.92;100987.34;5055362;28;45451;-67
2022/08/03 10:27:32;;;;;;;;;4.40;4.40;;;;;31.56;33.61;100989.53;5055616;28;45557;-67
2022/08/03 10:30:02;;;;;;;;;5.75;5.00;;;;;31.66;33.79;100980.53;5055597;28;45552;-67
2022/08/03 10:32:53;;;;;;;;;4.00;4.00;;;;;31.70;33.96;100978.41;5055174;28;45820;-67
2022/08/03 10:35:20;;;;;;;;;4.80;3.20;;;;;31.78;33.13;100967.81;5055144;28;45478;-66
2022/08/03 10:38:07;;;;;;;;;3.20;3.20;;;;;31.93;33.04;100970.22;5055022;28;45690;-68
2022/08/03 10:40:34;;;;;;;;;4.50;4.00;;;;;31.99;32.78;100967.88;5054851;28;45264;-67
2022/08/03 10:43:08;;;;;;;;;4.25;3.00;;;;;31.95;32.63;100957.41;5054739;28;45963;-67
2022/08/03 10:45:40;;;;;;;;;5.00;4.00;;;;;32.11;32.44;100972.25;5055225;28;45294;-68
2022/08/03 10:48:07;;;;;;;;;4.40;4.40;;;;;32.09;32.26;100967.97;5056025;28;45590;-69
2022/08/03 10:50:33;;;;;;;;;3.25;3.25;;;;;32.10;32.00;100956.97;5054507;28;45458;-67
2022/08/03 10:53:07;;;;;;;;;4.75;4.75;;;;;32.29;31.77;100952.69;5054557;28;46678;-67
2022/08/03 10:58:51;;;;;;;;;4.75;4.25;;;;;32.52;31.60;100958.84;5056530;28;45496;-68
2022/08/03 11:01:19;;;;;;;;;4.75;4.75;;;;;32.63;31.68;100964.22;5058811;28;45425;-67
2022/08/03 11:03:53;;;;;;;;;4.00;4.00;;;;;32.74;31.97;100960.53;5053749;28;46164;-66
2022/08/03 11:06:26;;;;;;;;;3.00;3.00;;;;;32.88;31.75;100954.75;5054238;28;45381;-68
2022/08/03 11:09:09;;;;;;;;;3.80;3.80;;;;;33.04;31.08;100950.72;5054281;28;45930;-67
2022/08/03 11:11:44;;;;;;;;;3.25;3.25;;;;;33.12;30.82;100943.56;5054411;28;45716;-67
2022/08/03 11:14:17;;;;;;;;;3.20;3.20;;;;;33.29;31.07;100946.63;5054183;28;45465;-67
2022/08/03 11:16:46;;;;;;;;;5.00;4.00;;;;;33.29;30.50;100939.34;5053956;28;45359;-67
2022/08/03 11:19:14;;;;;;;;;3.20;3.20;;;;;33.34;30.76;100941.63;5054238;28;45328;-68
2022/08/03 11:21:48;;;;;;;;;4.00;4.00;;;;;33.42;30.28;100932.81;5040458;28;45811;-67
2022/08/03 11:24:35;;;;;;;;;4.00;3.60;;;;;33.50;30.20;100933.78;5050516;28;46356;-67
2022/08/03 11:27:13;;;;;;;;;5.40;3.80;;;;;33.53;30.07;100932.66;5048592;28;45680;-69
2022/08/03 11:30:06;;;;;;;;;6.00;4.00;;;;;33.54;29.86;100923.53;5051405;28;45595;-67
2022/08/03 11:32:39;;;;;;;;;3.00;3.00;;;;;33.53;28.96;100919.97;5049422;28;45527;-66
2022/08/03 11:35:32;;;;;;;;;3.40;3.40;;;;;33.44;29.77;100920.81;5036151;28;48032;-66
2022/08/03 11:38:03;;;;;;;;;5.80;4.00;;;;;33.56;29.56;100922.41;5035132;28;45366;-67
2022/08/03 11:40:50;;;;;;;;;4.60;4.00;;;;;33.50;29.20;100914.78;5037561;28;45410;-68
2022/08/03 11:43:27;;;;;;;;;5.40;4.00;;;;;33.38;29.48;100897.78;5050803;28;46481;-67